createdAt,value
2023-04-12T00:00:25.223Z,16.65
2023-04-12T00:01:26.852Z,16.58
2023-04-12T00:02:24.039Z,16.54
2023-04-12T00:03:24.287Z,16.51
2023-04-12T00:04:24.406Z,16.49
2023-04-12T00:05:24.446Z,16.45
2023-04-12T00:06:23.522Z,16.41
2023-04-12T00:07:23.649Z,16.52
2023-04-12T00:08:23.969Z,16.53
2023-04-12T00:09:23.873Z,16.44
2023-04-12T00:10:23.437Z,16.38
2023-04-12T00:11:23.222Z,16.29
2023-04-12T00:12:23.275Z,16.29
2023-04-12T00:13:23.434Z,16.30
2023-04-12T00:14:23.907Z,16.27
2023-04-12T00:15:24.628Z,16.33
2023-04-12T00:16:24.130Z,16.35
2023-04-12T00:17:23.305Z,16.37
2023-04-12T00:18:23.551Z,16.35
2023-04-12T00:19:23.365Z,16.32
2023-04-12T00:20:23.150Z,16.36
2023-04-12T00:21:23.458Z,16.32
2023-04-12T00:22:23.373Z,16.33
2023-04-12T00:23:23.313Z,16.25
2023-04-12T00:24:23.931Z,16.21
2023-04-12T00:25:23.705Z,16.26
2023-04-12T00:26:23.508Z,16.23
2023-04-12T00:27:23.277Z,16.08
2023-04-12T00:28:23.132Z,16.09
2023-04-12T00:29:23.356Z,16.17
2023-04-12T00:30:24.303Z,16.15
2023-04-12T00:31:23.484Z,16.09
2023-04-12T00:32:23.566Z,16.06
2023-04-12T00:33:23.632Z,16.11
2023-04-12T00:34:23.416Z,16.07
2023-04-12T00:35:23.405Z,16.09
2023-04-12T00:36:23.466Z,16.15
2023-04-12T00:37:23.249Z,16.09
2023-04-12T00:38:23.226Z,16.02
2023-04-12T00:39:28.829Z,16.05
2023-04-12T00:40:23.547Z,16.02
2023-04-12T00:41:23.417Z,15.98
2023-04-12T00:42:23.345Z,16.04
2023-04-12T00:43:23.404Z,16.05
2023-04-12T00:44:23.376Z,15.95
2023-04-12T00:45:28.644Z,15.85
2023-04-12T00:46:23.569Z,15.90
2023-04-12T00:47:23.245Z,15.86
2023-04-12T00:48:23.281Z,15.92
2023-04-12T00:49:23.374Z,15.89
2023-04-12T00:50:23.876Z,15.87
2023-04-12T00:51:23.383Z,15.90
2023-04-12T00:52:23.705Z,15.83
2023-04-12T00:53:23.649Z,15.82
2023-04-12T00:54:24.056Z,15.83
2023-04-12T00:55:24.209Z,15.74
2023-04-12T00:56:23.922Z,15.70
2023-04-12T00:57:24.399Z,15.71
2023-04-12T00:58:23.425Z,15.76
2023-04-12T00:59:23.145Z,15.76
2023-04-12T01:00:24.502Z,15.77
2023-04-12T01:01:23.214Z,15.78
2023-04-12T01:02:23.193Z,15.76
2023-04-12T01:03:24.211Z,15.67
2023-04-12T01:04:23.763Z,15.71
2023-04-12T01:05:23.802Z,15.66
2023-04-12T01:06:24.268Z,15.54
2023-04-12T01:07:23.664Z,15.60
2023-04-12T01:08:23.385Z,15.67
2023-04-12T01:09:23.587Z,15.65
2023-04-12T01:10:23.482Z,15.65
2023-04-12T01:11:23.427Z,15.56
2023-04-12T01:12:23.321Z,15.67
2023-04-12T01:13:23.161Z,15.64
2023-04-12T01:14:23.412Z,15.53
2023-04-12T01:15:23.831Z,15.53
2023-04-12T01:16:23.496Z,15.57
2023-04-12T01:17:23.393Z,15.56
2023-04-12T01:18:23.444Z,15.54
2023-04-12T01:19:23.332Z,15.56
2023-04-12T01:20:23.684Z,15.55
2023-04-12T01:21:23.202Z,15.43
2023-04-12T01:22:23.038Z,15.38
2023-04-12T01:23:23.740Z,15.30
2023-04-12T01:24:23.514Z,15.32
2023-04-12T01:25:23.613Z,15.38
2023-04-12T01:26:23.276Z,15.39
2023-04-12T01:27:23.513Z,15.43
2023-04-12T01:28:23.564Z,15.46
2023-04-12T01:29:23.182Z,15.43
2023-04-12T01:30:23.849Z,15.36
2023-04-12T01:31:23.321Z,15.28
2023-04-12T01:32:23.813Z,15.26
2023-04-12T01:33:23.089Z,15.21
2023-04-12T01:34:23.772Z,15.31
2023-04-12T01:35:23.627Z,15.27
2023-04-12T01:36:23.456Z,15.26
2023-04-12T01:37:23.289Z,15.26
2023-04-12T01:38:23.247Z,15.28
2023-04-12T01:39:23.799Z,15.28
2023-04-12T01:40:24.007Z,15.29
2023-04-12T01:41:23.714Z,15.34
2023-04-12T01:42:23.419Z,15.30
2023-04-12T01:43:22.907Z,15.33
2023-04-12T01:44:23.653Z,15.31
2023-04-12T01:45:24.433Z,15.23
2023-04-12T01:46:23.539Z,15.39
2023-04-12T01:47:23.562Z,15.33
2023-04-12T01:48:23.452Z,15.31
2023-04-12T01:49:23.092Z,15.25
2023-04-12T01:50:23.770Z,15.20
2023-04-12T01:51:23.326Z,15.19
2023-04-12T01:52:23.240Z,15.22
2023-04-12T01:53:23.113Z,15.17
2023-04-12T01:54:23.684Z,15.17
2023-04-12T01:55:23.361Z,15.21
2023-04-12T01:56:23.124Z,15.27
2023-04-12T01:57:23.323Z,15.26
2023-04-12T01:58:23.859Z,15.28
2023-04-12T01:59:23.469Z,15.32
2023-04-12T02:00:24.024Z,15.26
2023-04-12T02:01:23.468Z,15.19
2023-04-12T02:02:23.231Z,15.14
2023-04-12T02:03:23.626Z,15.09
2023-04-12T02:04:24.094Z,15.13
2023-04-12T02:05:23.952Z,15.25
2023-04-12T02:06:23.406Z,15.25
2023-04-12T02:07:23.447Z,15.12
2023-04-12T02:08:23.436Z,15.06
2023-04-12T02:09:23.491Z,15.12
2023-04-12T02:10:23.306Z,15.17
2023-04-12T02:11:23.381Z,15.21
2023-04-12T02:12:23.481Z,15.21
2023-04-12T02:13:23.378Z,15.21
2023-04-12T02:14:23.476Z,15.18
2023-04-12T02:15:23.674Z,15.16
2023-04-12T02:16:23.781Z,15.12
2023-04-12T02:17:23.497Z,15.13
2023-04-12T02:18:23.448Z,15.23
2023-04-12T02:19:23.549Z,15.34
2023-04-12T02:20:23.799Z,15.25
2023-04-12T02:21:23.702Z,15.23
2023-04-12T02:22:23.549Z,15.17
2023-04-12T02:23:23.465Z,15.15
2023-04-12T02:24:23.127Z,15.17
2023-04-12T02:25:23.508Z,15.10
2023-04-12T02:26:23.712Z,15.18
2023-04-12T02:27:23.753Z,15.17
2023-04-12T02:28:23.576Z,15.12
2023-04-12T02:29:23.409Z,15.18
2023-04-12T02:30:23.882Z,15.14
2023-04-12T02:31:23.715Z,15.13
2023-04-12T02:32:23.632Z,15.10
2023-04-12T02:33:23.191Z,15.15
2023-04-12T02:34:23.609Z,15.24
2023-04-12T02:35:23.989Z,15.28
2023-04-12T02:36:23.600Z,15.28
2023-04-12T02:37:23.472Z,15.27
2023-04-12T02:38:23.549Z,15.25
2023-04-12T02:39:23.306Z,15.17
2023-04-12T02:40:24.375Z,15.19
2023-04-12T02:41:23.621Z,15.20
2023-04-12T02:42:23.146Z,15.19
2023-04-12T02:43:23.345Z,15.14
2023-04-12T02:44:23.289Z,15.12
2023-04-12T02:45:23.523Z,15.10
2023-04-12T02:46:23.519Z,15.16
2023-04-12T02:47:23.726Z,15.14
2023-04-12T02:48:23.549Z,15.10
2023-04-12T02:49:23.255Z,15.15
2023-04-12T02:50:23.589Z,15.19
2023-04-12T02:51:23.449Z,15.19
2023-04-12T02:52:23.461Z,15.19
2023-04-12T02:53:23.514Z,15.13
2023-04-12T02:54:23.896Z,15.15
2023-04-12T02:55:24.003Z,15.11
2023-04-12T02:56:23.454Z,15.10
2023-04-12T02:57:23.308Z,15.03
2023-04-12T02:58:23.700Z,14.98
2023-04-12T02:59:23.511Z,14.93
2023-04-12T03:00:24.439Z,14.90
2023-04-12T03:01:23.716Z,14.98
2023-04-12T03:02:23.986Z,15
2023-04-12T03:03:23.584Z,15.06
2023-04-12T03:04:23.768Z,15.06
2023-04-12T03:05:24.356Z,15.03
2023-04-12T03:06:23.814Z,15.03
2023-04-12T03:07:23.397Z,15.10
2023-04-12T03:08:23.241Z,15.14
2023-04-12T03:09:23.409Z,15.17
2023-04-12T03:10:23.830Z,15.12
2023-04-12T03:11:23.954Z,15.21
2023-04-12T03:12:24.036Z,15.25
2023-04-12T03:13:23.818Z,15.26
2023-04-12T03:14:23.443Z,15.23
2023-04-12T03:15:24.708Z,15.28
2023-04-12T03:16:24.391Z,15.32
2023-04-12T03:17:23.473Z,15.35
2023-04-12T03:18:31.288Z,15.41
2023-04-12T03:19:23.810Z,15.48
2023-04-12T03:20:23.674Z,15.42
2023-04-12T03:21:23.485Z,15.42
2023-04-12T03:22:23.374Z,15.40
2023-04-12T03:23:23.380Z,15.43
2023-04-12T03:24:23.029Z,15.41
2023-04-12T03:25:23.359Z,15.44
2023-04-12T03:26:23.482Z,15.52
2023-04-12T03:27:23.504Z,15.56
2023-04-12T03:28:23.518Z,15.52
2023-04-12T03:29:23.479Z,15.46
2023-04-12T03:30:24.017Z,15.52
2023-04-12T03:31:23.448Z,15.46
2023-04-12T03:32:23.737Z,15.40
2023-04-12T03:33:23.825Z,15.51
2023-04-12T03:34:24.108Z,15.53
2023-04-12T03:35:23.797Z,15.56
2023-04-12T03:36:24.048Z,15.58
2023-04-12T03:37:23.769Z,15.52
2023-04-12T03:38:23.880Z,15.51
2023-04-12T03:39:23.826Z,15.52
2023-04-12T03:40:24.044Z,15.53
2023-04-12T03:41:23.606Z,15.56
2023-04-12T03:42:33.196Z,15.58
2023-04-12T03:43:23.486Z,15.52
2023-04-12T03:44:23.454Z,15.47
2023-04-12T03:45:24.358Z,15.53
2023-04-12T03:46:23.628Z,15.53
2023-04-12T03:47:23.568Z,15.52
2023-04-12T03:48:23.549Z,15.42
2023-04-12T03:49:23.450Z,15.43
2023-04-12T03:50:23.631Z,15.46
2023-04-12T03:51:23.757Z,15.46
2023-04-12T03:52:23.783Z,15.39
2023-04-12T03:53:23.496Z,15.40
2023-04-12T03:54:23.279Z,15.46
2023-04-12T03:55:23.527Z,15.43
2023-04-12T03:56:23.618Z,15.52
2023-04-12T03:57:23.436Z,15.52
2023-04-12T03:58:23.766Z,15.46
2023-04-12T03:59:23.518Z,15.45
2023-04-12T04:00:24.492Z,15.43
2023-04-12T04:01:23.553Z,15.47
2023-04-12T04:02:23.695Z,15.45
2023-04-12T04:03:24.470Z,15.42
2023-04-12T04:04:24.205Z,15.40
2023-04-12T04:05:23.631Z,15.40
2023-04-12T04:06:23.721Z,15.30
2023-04-12T04:07:23.988Z,15.25
2023-04-12T04:08:23.814Z,15.30
2023-04-12T04:09:23.891Z,15.23
2023-04-12T04:10:24.046Z,15.25
2023-04-12T04:11:23.413Z,15.26
2023-04-12T04:12:23.891Z,15.27
2023-04-12T04:13:23.548Z,15.31
2023-04-12T04:14:23.327Z,15.39
2023-04-12T04:15:23.532Z,15.36
2023-04-12T04:16:23.195Z,15.32
2023-04-12T04:17:23.402Z,15.28
2023-04-12T04:18:23.967Z,15.22
2023-04-12T04:19:23.639Z,15.19
2023-04-12T04:20:24.000Z,15.19
2023-04-12T04:21:23.559Z,15.22
2023-04-12T04:22:23.365Z,15.17
2023-04-12T04:23:24.121Z,15.14
2023-04-12T04:24:23.665Z,15.23
2023-04-12T04:25:24.019Z,15.28
2023-04-12T04:26:23.695Z,15.31
2023-04-12T04:27:23.869Z,15.32
2023-04-12T04:28:23.691Z,15.56
2023-04-12T04:29:24.204Z,15.43
2023-04-12T04:30:23.963Z,15.34
2023-04-12T04:31:23.813Z,15.31
2023-04-12T04:32:23.930Z,15.19
2023-04-12T04:33:24.172Z,15.20
2023-04-12T04:34:23.467Z,15.22
2023-04-12T04:35:24.000Z,15.15
2023-04-12T04:36:23.404Z,15.16
2023-04-12T04:37:23.785Z,15.24
2023-04-12T04:38:23.944Z,15.26
2023-04-12T04:39:23.932Z,15.21
2023-04-12T04:40:24.648Z,15.14
2023-04-12T04:41:24.036Z,15.21
2023-04-12T04:42:23.977Z,15.19
2023-04-12T04:43:23.542Z,15.22
2023-04-12T04:44:23.794Z,15.20
2023-04-12T04:45:23.935Z,15.23
2023-04-12T04:46:23.774Z,15.31
2023-04-12T04:47:23.579Z,15.39
2023-04-12T04:48:24.075Z,15.31
2023-04-12T04:49:23.853Z,15.15
2023-04-12T04:50:24.100Z,15.03
2023-04-12T04:51:23.530Z,15.01
2023-04-12T04:52:23.741Z,15.05
2023-04-12T04:53:24.047Z,15.15
2023-04-12T04:54:23.351Z,15.06
2023-04-12T04:55:24.240Z,15.12
2023-04-12T04:56:23.893Z,15.13
2023-04-12T04:57:23.803Z,15.09
2023-04-12T04:58:24.068Z,15.12
2023-04-12T04:59:23.595Z,15.15
2023-04-12T05:00:24.954Z,15.22
2023-04-12T05:01:24.234Z,15.15
2023-04-12T05:02:24.299Z,15.19
2023-04-12T05:03:23.776Z,15.26
2023-04-12T05:04:23.413Z,15.27
2023-04-12T05:05:24.459Z,15.21
2023-04-12T05:06:24.152Z,15.16
2023-04-12T05:07:23.393Z,15.27
2023-04-12T05:08:23.659Z,15.29
2023-04-12T05:09:24.092Z,15.15
2023-04-12T05:10:23.856Z,15.12
2023-04-12T05:11:24.070Z,15.15
2023-04-12T05:12:23.602Z,15.18
2023-04-12T05:13:24.124Z,15.27
2023-04-12T05:14:23.704Z,15.30
2023-04-12T05:15:24.356Z,15.28
2023-04-12T05:16:24.020Z,15.26
2023-04-12T05:17:23.989Z,15.33
2023-04-12T05:18:23.713Z,15.22
2023-04-12T05:19:24.103Z,15.15
2023-04-12T05:20:23.924Z,15.03
2023-04-12T05:21:24.628Z,15.03
2023-04-12T05:22:24.108Z,15.04
2023-04-12T05:23:23.989Z,15.09
2023-04-12T05:24:23.664Z,15.17
2023-04-12T05:25:24.234Z,15.17
2023-04-12T05:26:23.866Z,15.07
2023-04-12T05:27:23.891Z,15.14
2023-04-12T05:28:24.011Z,15.15
2023-04-12T05:29:28.612Z,15.10
2023-04-12T05:30:24.396Z,15.11
2023-04-12T05:32:24.099Z,15.02
2023-04-12T05:33:23.590Z,15.02
2023-04-12T05:34:23.939Z,14.96
2023-04-12T05:35:23.571Z,14.94
2023-04-12T05:36:23.752Z,15.01
2023-04-12T05:37:23.565Z,14.98
2023-04-12T05:38:24.033Z,15.03
2023-04-12T05:39:23.934Z,15.05
2023-04-12T05:40:24.327Z,15.08
2023-04-12T05:41:24.325Z,15.08
2023-04-12T05:42:24.142Z,15.04
2023-04-12T05:43:23.802Z,15.07
2023-04-12T05:44:23.812Z,15.15
2023-04-12T05:45:24.144Z,15.16
2023-04-12T05:46:23.472Z,15.09
2023-04-12T05:47:24.096Z,15.04
2023-04-12T05:48:24.117Z,15.13
2023-04-12T05:49:24.142Z,15.06
2023-04-12T05:50:23.760Z,15.07
2023-04-12T05:51:37.653Z,14.99
2023-04-12T05:52:24.131Z,15.02
2023-04-12T05:53:24.057Z,15.06
2023-04-12T05:54:23.978Z,15.08
2023-04-12T05:55:23.594Z,15.10
2023-04-12T05:56:23.810Z,15.12
2023-04-12T05:57:23.967Z,15.16
2023-04-12T05:58:24.102Z,15.19
2023-04-12T05:59:23.683Z,15.14
2023-04-12T06:00:25.252Z,15.17
2023-04-12T06:01:37.663Z,15.26
2023-04-12T06:02:24.473Z,15.31
2023-04-12T06:03:24.693Z,15.30
2023-04-12T06:04:26.378Z,15.27
2023-04-12T06:05:24.145Z,15.21
2023-04-12T06:06:23.886Z,15.22
2023-04-12T06:07:23.907Z,15.18
2023-04-12T06:08:24.345Z,15.18
2023-04-12T06:09:24.386Z,15.24
2023-04-12T06:10:24.268Z,15.30
2023-04-12T06:11:24.328Z,15.32
2023-04-12T06:12:23.994Z,15.33
2023-04-12T06:13:24.270Z,15.35
2023-04-12T06:14:23.920Z,15.39
2023-04-12T06:15:24.284Z,15.36
2023-04-12T06:16:23.763Z,15.38
2023-04-12T06:17:24.354Z,15.32
2023-04-12T06:18:23.980Z,15.35
2023-04-12T06:19:23.958Z,15.43
2023-04-12T06:20:24.343Z,15.41
2023-04-12T06:21:23.892Z,15.40
2023-04-12T06:22:23.670Z,15.39
2023-04-12T06:23:24.226Z,15.42
2023-04-12T06:24:23.782Z,15.44
2023-04-12T06:25:24.328Z,15.58
2023-04-12T06:26:24.111Z,15.57
2023-04-12T06:27:24.093Z,15.54
2023-04-12T06:28:23.837Z,15.51
2023-04-12T06:29:23.532Z,15.57
2023-04-12T06:30:24.196Z,15.60
2023-04-12T06:31:23.594Z,15.56
2023-04-12T06:32:24.024Z,15.65
2023-04-12T06:33:24.204Z,15.73
2023-04-12T06:34:24.107Z,15.72
2023-04-12T06:35:24.073Z,15.77
2023-04-12T06:36:24.192Z,15.77
2023-04-12T06:37:23.944Z,15.75
2023-04-12T06:38:23.827Z,15.71
2023-04-12T06:39:24.321Z,15.70
2023-04-12T06:40:24.050Z,15.65
2023-04-12T06:41:24.062Z,15.75
2023-04-12T06:42:23.949Z,15.82
2023-04-12T06:43:23.677Z,15.84
2023-04-12T06:44:23.640Z,15.84
2023-04-12T06:45:24.623Z,15.94
2023-04-12T06:46:23.765Z,16.04
2023-04-12T06:47:24.035Z,16.02
2023-04-12T06:48:23.626Z,15.97
2023-04-12T06:49:24.334Z,15.97
2023-04-12T06:50:23.984Z,16.01
2023-04-12T06:51:24.146Z,16.06
2023-04-12T06:52:23.851Z,16.05
2023-04-12T06:53:23.537Z,16.10
2023-04-12T06:54:24.431Z,16.16
2023-04-12T06:55:24.797Z,16.10
2023-04-12T06:56:24.335Z,16.10
2023-04-12T06:57:24.031Z,16.03
2023-04-12T06:58:23.842Z,16.03
2023-04-12T06:59:24.559Z,16.14
2023-04-12T07:00:25.576Z,16.23
2023-04-12T07:01:24.173Z,16.27
2023-04-12T07:02:23.994Z,16.32
2023-04-12T07:03:24.053Z,16.31
2023-04-12T07:04:24.152Z,16.22
2023-04-12T07:05:24.361Z,16.31
2023-04-12T07:07:23.749Z,16.17
2023-04-12T07:08:24.184Z,16.16
2023-04-12T07:09:24.250Z,16.24
2023-04-12T07:10:23.984Z,16.25
2023-04-12T07:11:23.949Z,16.31
2023-04-12T07:12:23.982Z,16.38
2023-04-12T07:13:23.679Z,16.38
2023-04-12T07:14:24.071Z,16.35
2023-04-12T07:15:24.921Z,16.32
2023-04-12T07:16:24.203Z,16.31
2023-04-12T07:17:23.836Z,16.32
2023-04-12T07:18:24.539Z,16.29
2023-04-12T07:19:23.773Z,16.30
2023-04-12T07:20:24.441Z,16.33
2023-04-12T07:21:23.761Z,16.46
2023-04-12T07:22:24.186Z,16.42
2023-04-12T07:23:23.707Z,16.42
2023-04-12T07:24:24.254Z,16.43
2023-04-12T07:25:24.062Z,16.44
2023-04-12T07:26:23.999Z,16.40
2023-04-12T07:27:23.800Z,16.45
2023-04-12T07:28:24.118Z,16.54
2023-04-12T07:29:23.905Z,16.59
2023-04-12T07:30:24.777Z,16.60
2023-04-12T07:31:24.077Z,16.66
2023-04-12T07:32:24.183Z,16.65
2023-04-12T07:33:24.250Z,16.72
2023-04-12T07:34:24.553Z,16.78
2023-04-12T07:35:23.775Z,16.76
2023-04-12T07:36:23.855Z,16.78
2023-04-12T07:37:24.562Z,16.76
2023-04-12T07:38:24.003Z,16.79
2023-04-12T07:39:24.151Z,16.79
2023-04-12T07:40:23.890Z,16.80
2023-04-12T07:41:23.815Z,16.86
2023-04-12T07:42:23.792Z,16.90
2023-04-12T07:43:24.126Z,16.90
2023-04-12T07:44:24.140Z,16.91
2023-04-12T07:45:24.086Z,16.95
2023-04-12T07:46:24.021Z,17
2023-04-12T07:47:24.269Z,16.98
2023-04-12T07:48:24.088Z,17.00
2023-04-12T07:49:24.200Z,17
2023-04-12T07:50:24.261Z,17.04
2023-04-12T07:51:23.689Z,17.02
2023-04-12T07:52:24.006Z,17.01
2023-04-12T07:53:23.782Z,16.98
2023-04-12T07:54:24.373Z,16.97
2023-04-12T07:55:24.141Z,17.02
2023-04-12T07:56:24.064Z,17.05
2023-04-12T07:57:23.553Z,17.14
2023-04-12T07:58:24.231Z,17.18
2023-04-12T07:59:23.797Z,17.15
2023-04-12T08:00:24.847Z,17.18
2023-04-12T08:01:24.321Z,17.28
2023-04-12T08:02:24.170Z,17.31
2023-04-12T08:03:24.022Z,17.36
2023-04-12T08:04:23.729Z,17.42
2023-04-12T08:05:24.322Z,17.38
2023-04-12T08:06:23.888Z,17.36
2023-04-12T08:07:24.134Z,17.44
2023-04-12T08:08:24.052Z,17.45
2023-04-12T08:09:23.803Z,17.47
2023-04-12T08:10:24.545Z,17.5
2023-04-12T08:11:23.942Z,17.55
2023-04-12T08:12:23.812Z,17.57
2023-04-12T08:13:24.060Z,17.54
2023-04-12T08:14:23.748Z,17.54
2023-04-12T08:15:23.699Z,17.52
2023-04-12T08:16:24.150Z,17.59
2023-04-12T08:17:24.254Z,17.62
2023-04-12T08:18:24.471Z,17.64
2023-04-12T08:19:24.049Z,17.74
2023-04-12T08:20:24.078Z,17.84
2023-04-12T08:21:23.960Z,17.88
2023-04-12T08:22:23.555Z,17.94
2023-04-12T08:23:23.956Z,17.93
2023-04-12T08:24:23.890Z,17.95
2023-04-12T08:25:24.040Z,17.98
2023-04-12T08:26:23.915Z,18.07
2023-04-12T08:27:24.423Z,18.08
2023-04-12T08:28:24.082Z,18.05
2023-04-12T08:29:23.624Z,18.11
2023-04-12T08:30:24.519Z,18.21
2023-04-12T08:31:23.811Z,18.24
2023-04-12T08:32:23.879Z,18.28
2023-04-12T08:33:24.149Z,18.23
2023-04-12T08:34:23.774Z,18.20
2023-04-12T08:35:24.309Z,18.26
2023-04-12T08:36:23.945Z,18.36
2023-04-12T08:37:23.703Z,18.48
2023-04-12T08:38:37.274Z,18.57
2023-04-12T08:39:23.432Z,18.65
2023-04-12T08:40:23.971Z,18.75
2023-04-12T08:41:23.634Z,18.83
2023-04-12T08:42:24.003Z,18.94
2023-04-12T08:43:23.902Z,18.95
2023-04-12T08:44:24.290Z,18.97
2023-04-12T08:45:23.958Z,19.01
2023-04-12T08:46:24.373Z,18.97
2023-04-12T08:47:24.073Z,18.97
2023-04-12T08:48:24.380Z,19.04
2023-04-12T08:49:23.861Z,19.07
2023-04-12T08:50:24.518Z,19.13
2023-04-12T08:51:24.626Z,19.27
2023-04-12T08:52:24.436Z,19.35
2023-04-12T08:53:24.557Z,19.39
2023-04-12T08:54:24.331Z,19.47
2023-04-12T08:55:24.253Z,19.51
2023-04-12T08:56:23.970Z,19.57
2023-04-12T08:57:24.321Z,19.62
2023-04-12T08:58:23.824Z,19.72
2023-04-12T08:59:24.395Z,19.81
2023-04-12T09:00:24.640Z,19.89
2023-04-12T09:01:23.772Z,20.03
2023-04-12T09:02:24.355Z,20.15
2023-04-12T09:03:24.403Z,20.34
2023-04-12T09:04:23.687Z,20.38
2023-04-12T09:05:24.317Z,20.37
2023-04-12T09:06:24.007Z,20.45
2023-04-12T09:07:23.332Z,20.52
2023-04-12T09:08:23.764Z,20.54
2023-04-12T09:09:23.638Z,20.59
2023-04-12T09:10:24.061Z,20.66
2023-04-12T09:11:23.493Z,20.64
2023-04-12T09:12:23.664Z,20.63
2023-04-12T09:13:23.579Z,20.54
2023-04-12T09:14:23.875Z,20.54
2023-04-12T09:15:24.809Z,20.57
2023-04-12T09:16:23.910Z,20.55
2023-04-12T09:17:24.090Z,20.54
2023-04-12T09:18:23.691Z,20.5
2023-04-12T09:19:23.693Z,20.40
2023-04-12T09:20:24.416Z,20.27
2023-04-12T09:21:24.212Z,20.14
2023-04-12T09:22:23.640Z,20.21
2023-04-12T09:23:24.172Z,20.22
2023-04-12T09:24:23.720Z,20.18
2023-04-12T09:25:24.132Z,20.18
2023-04-12T09:26:23.476Z,20.19
2023-04-12T09:27:23.734Z,20.19
2023-04-12T09:28:24.157Z,20.13
2023-04-12T09:29:24.184Z,20.11
2023-04-12T09:30:24.495Z,20.07
2023-04-12T09:31:24.374Z,20.11
2023-04-12T09:32:23.947Z,20.07
2023-04-12T09:33:24.250Z,20.05
2023-04-12T09:34:24.697Z,20.02
2023-04-12T09:35:24.467Z,19.95
2023-04-12T09:36:24.116Z,19.90
2023-04-12T09:37:23.929Z,19.90
2023-04-12T09:38:24.102Z,19.93
2023-04-12T09:39:24.074Z,19.97
2023-04-12T09:40:24.496Z,19.95
2023-04-12T09:41:26.950Z,19.95
2023-04-12T09:42:33.332Z,19.94
2023-04-12T09:43:23.947Z,19.92
2023-04-12T09:44:23.918Z,19.92
2023-04-12T09:45:24.406Z,19.91
2023-04-12T09:46:24.316Z,19.93
2023-04-12T09:47:23.989Z,19.95
2023-04-12T09:48:24.316Z,19.95
2023-04-12T09:49:24.465Z,19.95
2023-04-12T09:50:24.630Z,19.95
2023-04-12T09:51:24.329Z,20.01
2023-04-12T09:52:24.207Z,20.11
2023-04-12T09:53:23.991Z,20.15
2023-04-12T09:54:24.028Z,20.13
2023-04-12T09:55:23.863Z,20.14
2023-04-12T09:56:24.463Z,20.19
2023-04-12T09:57:24.144Z,20.23
2023-04-12T09:58:24.266Z,20.39
2023-04-12T09:59:23.806Z,20.58
2023-04-12T10:00:25.586Z,20.73
2023-04-12T10:01:24.406Z,20.86
2023-04-12T10:02:24.460Z,20.89
2023-04-12T10:03:24.250Z,20.98
2023-04-12T10:04:24.444Z,21.07
2023-04-12T10:05:24.658Z,21.17
2023-04-12T10:06:23.742Z,21.27
2023-04-12T10:07:25.403Z,21.32
2023-04-12T10:08:24.100Z,21.35
2023-04-12T10:09:23.879Z,21.35
2023-04-12T10:10:24.472Z,21.39
2023-04-12T10:11:24.220Z,21.44
2023-04-12T10:12:23.843Z,21.45
2023-04-12T10:13:24.007Z,21.45
2023-04-12T10:14:23.708Z,21.51
2023-04-12T10:15:25.051Z,21.54
2023-04-12T10:16:24.318Z,21.57
2023-04-12T10:17:24.340Z,21.63
2023-04-12T10:18:24.429Z,21.72
2023-04-12T10:19:24.109Z,21.75
2023-04-12T10:20:27.367Z,21.88
2023-04-12T10:21:28.577Z,22.01
2023-04-12T10:22:23.954Z,22.11
2023-04-12T10:23:23.844Z,22.20
2023-04-12T10:24:23.912Z,22.23
2023-04-12T10:25:24.584Z,22.25
2023-04-12T10:26:23.997Z,22.25
2023-04-12T10:27:23.756Z,22.28
2023-04-12T10:28:24.352Z,22.22
2023-04-12T10:29:24.016Z,22.18
2023-04-12T10:30:23.902Z,22.21
2023-04-12T10:31:31.886Z,22.12
2023-04-12T10:32:23.950Z,22.07
2023-04-12T10:33:23.714Z,22.06
2023-04-12T10:34:24.405Z,22.06
2023-04-12T10:35:32.550Z,22.04
2023-04-12T10:36:24.072Z,21.97
2023-04-12T10:37:23.902Z,21.87
2023-04-12T10:38:23.906Z,21.81
2023-04-12T10:39:23.895Z,21.74
2023-04-12T10:40:24.004Z,21.73
2023-04-12T10:41:37.740Z,21.62
2023-04-12T10:42:24.251Z,21.27
2023-04-12T10:43:38.311Z,21.26
2023-04-12T10:44:24.528Z,21.13
2023-04-12T10:45:24.620Z,20.98
2023-04-12T10:46:24.482Z,20.73
2023-04-12T10:47:24.599Z,20.54
2023-04-12T10:48:24.169Z,20.32
2023-04-12T10:49:24.465Z,20.21
2023-04-12T10:50:24.747Z,20.11
2023-04-12T10:51:23.752Z,20.01
2023-04-12T10:52:24.717Z,19.87
2023-04-12T10:53:24.496Z,19.90
2023-04-12T10:54:24.332Z,19.80
2023-04-12T10:55:24.325Z,19.68
2023-04-12T10:56:24.237Z,19.56
2023-04-12T10:57:24.312Z,19.51
2023-04-12T10:58:24.087Z,19.46
2023-04-12T10:59:31.278Z,19.36
2023-04-12T11:00:24.381Z,19.22
2023-04-12T11:01:43.619Z,19.11
2023-04-12T11:02:24.334Z,19.02
2023-04-12T11:03:24.331Z,18.89
2023-04-12T11:04:24.634Z,18.80
2023-04-12T11:05:24.501Z,18.78
2023-04-12T11:06:27.209Z,18.66
2023-04-12T11:07:24.398Z,18.62
2023-04-12T11:08:24.736Z,18.57
2023-04-12T11:09:24.192Z,18.57
2023-04-12T11:10:24.772Z,18.54
2023-04-12T11:11:24.804Z,18.51
2023-04-12T11:12:24.081Z,18.57
2023-04-12T11:13:24.122Z,18.58
2023-04-12T11:14:24.703Z,18.64
2023-04-12T11:15:24.715Z,18.68
2023-04-12T11:16:24.291Z,18.72
2023-04-12T11:17:24.847Z,18.77
2023-04-12T11:18:24.315Z,18.88
2023-04-12T11:19:25.009Z,18.97
2023-04-12T11:20:24.317Z,18.98
2023-04-12T11:21:24.350Z,19.06
2023-04-12T11:22:24.591Z,19.21
2023-04-12T11:23:23.614Z,19.35
2023-04-12T11:24:24.517Z,19.44
2023-04-12T11:25:24.939Z,19.55
2023-04-12T11:26:24.216Z,19.61
2023-04-12T11:27:24.089Z,19.60
2023-04-12T11:28:29.795Z,19.63
2023-04-12T11:29:24.517Z,19.69
2023-04-12T11:30:26.084Z,19.74
2023-04-12T11:32:29.011Z,19.82
2023-04-12T11:33:23.984Z,19.88
2023-04-12T11:34:24.287Z,20.00
2023-04-12T11:35:24.435Z,20.02
2023-04-12T11:36:24.384Z,20.04
2023-04-12T11:37:24.344Z,20.11
2023-04-12T11:38:24.468Z,20.14
2023-04-12T11:39:24.341Z,20.22
2023-04-12T11:40:24.310Z,20.34
2023-04-12T11:41:24.487Z,20.42
2023-04-12T11:42:24.470Z,20.48
2023-04-12T11:43:24.429Z,20.51
2023-04-12T11:44:24.503Z,20.51
2023-04-12T11:45:24.966Z,20.62
2023-04-12T11:46:24.801Z,20.70
2023-04-12T11:47:24.280Z,20.83
2023-04-12T11:48:24.391Z,20.93
2023-04-12T11:49:24.653Z,20.93
2023-04-12T11:50:24.971Z,20.99
2023-04-12T11:51:23.643Z,21.07
2023-04-12T11:52:24.773Z,21.18
2023-04-12T11:53:24.706Z,21.36
2023-04-12T11:54:24.697Z,21.40
2023-04-12T11:55:24.951Z,21.47
2023-04-12T11:56:24.335Z,21.55
2023-04-12T11:57:24.744Z,21.65
2023-04-12T11:58:24.306Z,21.72
2023-04-12T11:59:24.380Z,21.72
2023-04-12T12:00:26.139Z,21.76
2023-04-12T12:01:24.860Z,21.72
2023-04-12T12:02:25.806Z,21.80
2023-04-12T12:03:25.151Z,21.87
2023-04-12T12:04:24.983Z,21.90
2023-04-12T12:05:25.407Z,21.92
2023-04-12T12:06:26.485Z,21.93
2023-04-12T12:07:24.468Z,21.95
2023-04-12T12:08:24.337Z,21.92
2023-04-12T12:09:24.954Z,21.92
2023-04-12T12:10:40.052Z,21.87
2023-04-12T12:11:24.677Z,21.94
2023-04-12T12:12:23.969Z,22.04
2023-04-12T12:13:24.089Z,22.12
2023-04-12T12:14:23.856Z,22.13
2023-04-12T12:15:23.903Z,22.04
2023-04-12T12:16:24.159Z,21.98
2023-04-12T12:17:24.345Z,21.95
2023-04-12T12:18:24.335Z,21.96
2023-04-12T12:19:24.638Z,21.92
2023-04-12T12:20:24.789Z,21.90
2023-04-12T12:21:24.844Z,21.92
2023-04-12T12:22:24.243Z,21.88
2023-04-12T12:23:24.026Z,21.88
2023-04-12T12:24:24.213Z,21.90
2023-04-12T12:25:24.542Z,21.91
2023-04-12T12:26:24.818Z,21.93
2023-04-12T12:27:24.175Z,21.88
2023-04-12T12:28:24.574Z,21.88
2023-04-12T12:29:24.234Z,21.83
2023-04-12T12:30:24.841Z,21.75
2023-04-12T12:31:23.930Z,21.69
2023-04-12T12:32:24.284Z,21.58
2023-04-12T12:33:35.160Z,21.45
2023-04-12T12:34:24.352Z,21.37
2023-04-12T12:35:24.629Z,21.32
2023-04-12T12:36:24.238Z,21.33
2023-04-12T12:37:24.259Z,21.38
2023-04-12T12:38:32.016Z,21.36
2023-04-12T12:39:23.873Z,21.44
2023-04-12T12:40:24.716Z,21.54
2023-04-12T12:41:24.329Z,21.57
2023-04-12T12:42:24.436Z,21.65
2023-04-12T12:43:24.187Z,21.73
2023-04-12T12:44:23.818Z,21.79
2023-04-12T12:45:24.811Z,21.93
2023-04-12T12:46:23.813Z,21.94
2023-04-12T12:47:24.267Z,21.99
2023-04-12T12:48:24.195Z,22.04
2023-04-12T12:49:24.407Z,22.09
2023-04-12T12:50:24.909Z,22.18
2023-04-12T12:51:24.106Z,22.22
2023-04-12T12:52:26.954Z,22.22
2023-04-12T12:53:24.684Z,22.23
2023-04-12T12:54:36.632Z,22.25
2023-04-12T12:55:24.931Z,22.29
2023-04-12T12:56:24.648Z,22.27